Time,TemperatureF,DewpointF,PressureIn,WindDirection,WindDirectionDegrees,WindSpeedMPH,WindSpeedGustMPH,Humidity,HourlyPrecipIn,Conditions,Clouds,dailyrainin,SolarRadiationWatts/m^2,SoftwareType,DateUTC
2013-02-01 00:12:00,24.0,22.0,-100.00,ENE,75,0.0,4.0,92,0.00,,,0.00,0.000000,,2013-02-01 07:12:00,
2013-02-01 00:22:00,24.0,22.0,-100.00,ENE,75,0.0,4.0,92,0.00,,,0.00,0.000000,,2013-02-01 07:22:00,
2013-02-01 00:32:00,24.0,22.0,-100.00,ENE,75,0.0,4.0,92,0.00,,,0.00,0.000000,,2013-02-01 07:32:00,
2013-02-01 00:41:00,24.0,22.0,-100.00,ENE,75,0.0,4.0,92,0.00,,,0.00,0.000000,,2013-02-01 07:41:00,
2013-02-01 00:51:00,24.0,22.0,-100.00,ENE,75,0.0,4.0,92,0.00,,,0.00,0.000000,,2013-02-01 07:51:00,
2013-02-01 00:52:00,24.0,24.0,-100.00,ENE,77,2.0,4.0,98,0.00,,,0.00,0.000000,,2013-02-01 07:52:00,
2013-02-01 01:21:00,24.0,24.0,-100.00,ENE,77,2.0,4.0,98,0.00,,,0.00,0.000000,,2013-02-01 08:21:00,
2013-02-01 01:31:00,24.0,24.0,-100.00,ENE,77,2.0,4.0,98,0.00,,,0.00,0.000000,,2013-02-01 08:31:00,
2013-02-01 01:42:00,24.0,24.0,-100.00,ENE,77,2.0,4.0,98,0.00,,,0.00,0.000000,,2013-02-01 08:42:00,
2013-02-01 02:11:00,24.0,24.0,-100.00,East,87,0.0,5.0,98,0.00,,,0.00,0.000000,,2013-02-01 09:11:00,
2013-02-01 02:21:00,24.0,24.0,-100.00,East,87,0.0,5.0,98,0.00,,,0.00,0.000000,,2013-02-01 09:21:00,
2013-02-01 02:32:00,24.0,24.0,-100.00,East,87,0.0,5.0,98,0.00,,,0.00,0.000000,,2013-02-01 09:32:00,
2013-02-01 02:41:00,24.0,24.0,-100.00,East,87,0.0,5.0,98,0.00,,,0.00,0.000000,,2013-02-01 09:41:00,
2013-02-01 02:51:00,24.0,24.0,-100.00,East,87,0.0,5.0,98,0.00,,,0.00,0.000000,,2013-02-01 09:51:00,
2013-02-01 02:52:00,24.0,24.0,-100.00,NE,36,0.0,0.0,98,0.00,,,0.00,0.000000,,2013-02-01 09:52:00,
2013-02-01 03:11:00,24.0,24.0,-100.00,NE,36,0.0,0.0,98,0.00,,,0.00,0.000000,,2013-02-01 10:11:00,
2013-02-01 03:21:00,24.0,24.0,-100.00,NE,36,0.0,0.0,98,0.00,,,0.00,0.000000,,2013-02-01 10:21:00,
2013-02-01 03:31:00,24.0,24.0,-100.00,NE,36,0.0,0.0,98,0.00,,,0.00,0.000000,,2013-02-01 10:31:00,
2013-02-01 03:42:00,24.0,24.0,-100.00,NE,36,0.0,0.0,98,0.00,,,0.00,0.000000,,2013-02-01 10:42:00,
2013-02-01 03:52:00,24.0,23.0,-100.00,East,98,0.0,4.0,97,0.00,,,0.00,0.000000,,2013-02-01 10:52:00,
2013-02-01 04:21:00,24.0,23.0,-100.00,East,98,0.0,4.0,97,0.00,,,0.00,0.000000,,2013-02-01 11:21:00,
2013-02-01 04:32:00,24.0,23.0,-100.00,East,98,0.0,4.0,97,0.00,,,0.00,0.000000,,2013-02-01 11:32:00,
2013-02-01 04:41:00,24.0,23.0,-100.00,East,98,0.0,4.0,97,0.00,,,0.00,0.000000,,2013-02-01 11:41:00,
2013-02-01 04:52:00,25.0,25.0,-100.00,ENE,57,0.0,0.0,99,0.00,,,0.00,0.000000,,2013-02-01 11:52:00,
2013-02-01 05:12:00,25.0,25.0,-100.00,ENE,57,0.0,0.0,99,0.00,,,0.00,0.000000,,2013-02-01 12:12:00,
2013-02-01 05:22:00,25.0,25.0,-100.00,ENE,57,0.0,0.0,99,0.00,,,0.00,0.000000,,2013-02-01 12:22:00,
2013-02-01 05:32:00,25.0,25.0,-100.00,ENE,57,0.0,0.0,99,0.00,,,0.00,0.000000,,2013-02-01 12:32:00,
2013-02-01 05:42:00,25.0,25.0,-100.00,ENE,57,0.0,0.0,99,0.00,,,0.00,0.000000,,2013-02-01 12:42:00,
2013-02-01 05:52:00,25.0,25.0,-100.00,WNW,286,0.0,2.0,100,0.00,,,0.00,0.000000,,2013-02-01 12:52:00,
2013-02-01 06:11:00,25.0,25.0,-100.00,WNW,286,0.0,2.0,100,0.00,,,0.00,0.000000,,2013-02-01 13:11:00,
2013-02-01 06:21:00,25.0,25.0,-100.00,WNW,286,0.0,2.0,100,0.00,,,0.00,0.000000,,2013-02-01 13:21:00,
2013-02-01 06:32:00,25.0,25.0,-100.00,WNW,286,0.0,2.0,100,0.00,,,0.00,0.000000,,2013-02-01 13:32:00,
2013-02-01 06:42:00,25.0,25.0,-100.00,WNW,286,0.0,2.0,100,0.00,,,0.00,0.000000,,2013-02-01 13:42:00,
2013-02-01 06:52:00,25.0,25.0,-100.00,NNW,329,0.0,4.0,99,0.00,,,0.00,0.000000,,2013-02-01 13:52:00,
2013-02-01 07:11:00,25.0,25.0,-100.00,NNW,329,0.0,4.0,99,0.00,,,0.00,0.000000,,2013-02-01 14:11:00,
2013-02-01 07:21:00,25.0,25.0,-100.00,NNW,329,0.0,4.0,99,0.00,,,0.00,0.000000,,2013-02-01 14:21:00,
2013-02-01 07:32:00,25.0,25.0,-100.00,NNW,329,0.0,4.0,99,0.00,,,0.00,0.000000,,2013-02-01 14:32:00,
2013-02-01 07:42:00,25.0,25.0,-100.00,NNW,329,0.0,4.0,99,0.00,,,0.00,0.000000,,2013-02-01 14:42:00,
2013-02-01 08:21:00,26.0,24.0,-100.00,WNW,290,3.0,8.0,91,0.00,,,0.00,0.000000,,2013-02-01 15:21:00,
2013-02-01 08:32:00,26.0,24.0,-100.00,WNW,290,3.0,8.0,91,0.00,,,0.00,0.000000,,2013-02-01 15:32:00,
2013-02-01 08:42:00,26.0,24.0,-100.00,WNW,290,3.0,8.0,91,0.00,,,0.00,0.000000,,2013-02-01 15:42:00,
2013-02-01 08:51:00,26.0,24.0,-100.00,WNW,290,3.0,8.0,91,0.00,,,0.00,0.000000,,2013-02-01 15:51:00,
2013-02-01 08:52:00,26.0,25.0,-100.00,WNW,291,6.0,11.0,96,0.00,,,0.00,3.000000,,2013-02-01 15:52:00,
2013-02-01 09:11:00,26.0,25.0,-100.00,WNW,291,6.0,11.0,96,0.00,,,0.00,3.000000,,2013-02-01 16:11:00,
2013-02-01 09:22:00,26.0,25.0,-100.00,WNW,291,6.0,11.0,96,0.00,,,0.00,3.000000,,2013-02-01 16:22:00,
2013-02-01 09:32:00,26.0,25.0,-100.00,WNW,291,6.0,11.0,96,0.00,,,0.00,3.000000,,2013-02-01 16:32:00,
2013-02-01 09:42:00,26.0,25.0,-100.00,WNW,291,6.0,11.0,96,0.00,,,0.00,3.000000,,2013-02-01 16:42:00,
2013-02-01 09:52:00,28.0,26.0,-100.00,West,265,5.0,11.0,93,0.00,,,0.00,18.000000,,2013-02-01 16:52:00,
2013-02-01 10:22:00,28.0,26.0,-100.00,West,265,5.0,11.0,93,0.00,,,0.00,18.000000,,2013-02-01 17:22:00,
2013-02-01 10:32:00,28.0,26.0,-100.00,West,265,5.0,11.0,93,0.00,,,0.00,18.000000,,2013-02-01 17:32:00,
2013-02-01 10:42:00,28.0,26.0,-100.00,West,265,5.0,11.0,93,0.00,,,0.00,18.000000,,2013-02-01 17:42:00,
2013-02-01 10:52:00,31.0,25.0,-100.00,West,265,5.0,15.0,79,0.00,,,0.00,83.000000,,2013-02-01 17:52:00,
2013-02-01 11:12:00,31.0,25.0,-100.00,West,265,5.0,15.0,79,0.00,,,0.00,83.000000,,2013-02-01 18:12:00,
2013-02-01 11:22:00,31.0,25.0,-100.00,West,265,5.0,15.0,79,0.00,,,0.00,83.000000,,2013-02-01 18:22:00,
2013-02-01 11:32:00,31.0,25.0,-100.00,West,265,5.0,15.0,79,0.00,,,0.00,83.000000,,2013-02-01 18:32:00,
2013-02-01 11:42:00,31.0,25.0,-100.00,West,265,5.0,15.0,79,0.00,,,0.00,83.000000,,2013-02-01 18:42:00,
2013-02-01 12:11:00,32.0,22.0,-100.00,West,261,4.0,11.0,66,0.00,,,-99.99,71.000000,,2013-02-01 19:11:00,
2013-02-01 12:21:00,32.0,22.0,-100.00,West,261,4.0,11.0,66,0.00,,,-99.99,71.000000,,2013-02-01 19:21:00,
2013-02-01 12:32:00,32.0,22.0,-100.00,West,261,4.0,11.0,66,0.00,,,-99.99,71.000000,,2013-02-01 19:32:00,
2013-02-01 12:41:00,32.0,22.0,-100.00,West,261,4.0,11.0,66,0.00,,,-99.99,71.000000,,2013-02-01 19:41:00,
2013-02-01 12:51:00,32.0,22.0,-100.00,West,261,4.0,11.0,66,0.00,,,-99.99,71.000000,,2013-02-01 19:51:00,
2013-02-01 13:11:00,30.0,18.0,-100.00,WNW,298,8.0,14.0,61,0.00,,,0.00,215.000000,,2013-02-01 20:11:00,
2013-02-01 13:21:00,30.0,18.0,-100.00,WNW,298,8.0,14.0,61,0.00,,,0.00,215.000000,,2013-02-01 20:21:00,
2013-02-01 13:31:00,30.0,18.0,-100.00,WNW,298,8.0,14.0,61,0.00,,,0.00,215.000000,,2013-02-01 20:31:00,
2013-02-01 13:41:00,30.0,18.0,-100.00,WNW,298,8.0,14.0,61,0.00,,,0.00,215.000000,,2013-02-01 20:41:00,
2013-02-01 13:51:00,30.0,18.0,-100.00,WNW,298,8.0,14.0,61,0.00,,,0.00,215.000000,,2013-02-01 20:51:00,
2013-02-01 13:52:00,32.0,15.0,-100.00,NW,306,8.0,18.0,50,0.00,,,0.00,402.000000,,2013-02-01 20:52:00,
2013-02-01 14:11:00,32.0,15.0,-100.00,NW,306,8.0,18.0,50,0.00,,,0.00,402.000000,,2013-02-01 21:11:00,
2013-02-01 14:21:00,32.0,15.0,-100.00,NW,306,8.0,18.0,50,0.00,,,0.00,402.000000,,2013-02-01 21:21:00,
2013-02-01 14:31:00,32.0,15.0,-100.00,NW,306,8.0,18.0,50,0.00,,,0.00,402.000000,,2013-02-01 21:31:00,
2013-02-01 14:41:00,32.0,15.0,-100.00,NW,306,8.0,18.0,50,0.00,,,0.00,402.000000,,2013-02-01 21:41:00,
2013-02-01 15:21:00,33.0,15.0,-100.00,WNW,283,9.0,17.0,48,0.00,,,0.00,551.000000,,2013-02-01 22:21:00,
2013-02-01 15:32:00,33.0,15.0,-100.00,WNW,283,9.0,17.0,48,0.00,,,0.00,551.000000,,2013-02-01 22:32:00,
2013-02-01 15:42:00,33.0,15.0,-100.00,WNW,283,9.0,17.0,48,0.00,,,0.00,551.000000,,2013-02-01 22:42:00,
2013-02-01 15:51:00,33.0,15.0,-100.00,WNW,283,9.0,17.0,48,0.00,,,0.00,551.000000,,2013-02-01 22:51:00,
2013-02-01 15:52:00,31.0,13.0,-100.00,WNW,288,8.0,17.0,47,0.00,,,0.00,378.000000,,2013-02-01 22:52:00,
2013-02-01 16:11:00,31.0,13.0,-100.00,WNW,288,8.0,17.0,47,0.00,,,0.00,378.000000,,2013-02-01 23:11:00,
2013-02-01 16:21:00,31.0,13.0,-100.00,WNW,288,8.0,17.0,47,0.00,,,0.00,378.000000,,2013-02-01 23:21:00,
2013-02-01 16:31:00,31.0,13.0,-100.00,WNW,288,8.0,17.0,47,0.00,,,0.00,378.000000,,2013-02-01 23:31:00,
2013-02-01 16:41:00,31.0,13.0,-100.00,WNW,288,8.0,17.0,47,0.00,,,0.00,378.000000,,2013-02-01 23:41:00,
2013-02-01 16:52:00,29.0,13.0,-100.00,NW,305,6.0,16.0,51,0.00,,,0.00,125.000000,,2013-02-01 23:52:00,
2013-02-01 17:11:00,29.0,13.0,-100.00,NW,305,6.0,16.0,51,0.00,,,0.00,125.000000,,2013-02-02 00:11:00,
2013-02-01 17:21:00,29.0,13.0,-100.00,NW,305,6.0,16.0,51,0.00,,,0.00,125.000000,,2013-02-02 00:21:00,
2013-02-01 17:32:00,29.0,13.0,-100.00,NW,305,6.0,16.0,51,0.00,,,0.00,125.000000,,2013-02-02 00:32:00,
2013-02-01 17:41:00,29.0,13.0,-100.00,NW,305,6.0,16.0,51,0.00,,,0.00,125.000000,,2013-02-02 00:41:00,
2013-02-01 17:52:00,25.0,14.0,-100.00,SE,136,3.0,12.0,63,0.00,,,0.00,12.000000,,2013-02-02 00:52:00,
2013-02-01 18:11:00,25.0,14.0,-100.00,SE,136,3.0,12.0,63,0.00,,,0.00,12.000000,,2013-02-02 01:11:00,
2013-02-01 18:21:00,25.0,14.0,-100.00,SE,136,3.0,12.0,63,0.00,,,0.00,12.000000,,2013-02-02 01:21:00,
2013-02-01 18:31:00,25.0,14.0,-100.00,SE,136,3.0,12.0,63,0.00,,,0.00,12.000000,,2013-02-02 01:31:00,
2013-02-01 18:41:00,25.0,14.0,-100.00,SE,136,3.0,12.0,63,0.00,,,0.00,12.000000,,2013-02-02 01:41:00,
2013-02-01 18:52:00,23.0,14.0,-100.00,WSW,246,3.0,8.0,67,0.00,,,0.00,0.000000,,2013-02-02 01:52:00,
2013-02-01 19:11:00,23.0,14.0,-100.00,WSW,246,3.0,8.0,67,0.00,,,0.00,0.000000,,2013-02-02 02:11:00,
2013-02-01 19:21:00,23.0,14.0,-100.00,WSW,246,3.0,8.0,67,0.00,,,0.00,0.000000,,2013-02-02 02:21:00,
2013-02-01 19:31:00,23.0,14.0,-100.00,WSW,246,3.0,8.0,67,0.00,,,0.00,0.000000,,2013-02-02 02:31:00,
2013-02-01 19:41:00,23.0,14.0,-100.00,WSW,246,3.0,8.0,67,0.00,,,0.00,0.000000,,2013-02-02 02:41:00,
2013-02-01 20:11:00,19.0,11.0,-100.00,NNW,335,0.0,9.0,72,0.00,,,0.00,0.000000,,2013-02-02 03:11:00,
2013-02-01 20:21:00,19.0,11.0,-100.00,NNW,335,0.0,9.0,72,0.00,,,0.00,0.000000,,2013-02-02 03:21:00,
2013-02-01 20:32:00,19.0,11.0,-100.00,NNW,335,0.0,9.0,72,0.00,,,0.00,0.000000,,2013-02-02 03:32:00,
2013-02-01 20:42:00,19.0,11.0,-100.00,NNW,335,0.0,9.0,72,0.00,,,0.00,0.000000,,2013-02-02 03:42:00,
2013-02-01 20:51:00,19.0,11.0,-100.00,NNW,335,0.0,9.0,72,0.00,,,0.00,0.000000,,2013-02-02 03:51:00,
2013-02-01 21:11:00,15.0,9.0,-100.00,ENE,77,3.0,6.0,78,0.00,,,0.00,0.000000,,2013-02-02 04:11:00,
2013-02-01 21:21:00,15.0,9.0,-100.00,ENE,77,3.0,6.0,78,0.00,,,0.00,0.000000,,2013-02-02 04:21:00,
2013-02-01 21:32:00,15.0,9.0,-100.00,ENE,77,3.0,6.0,78,0.00,,,0.00,0.000000,,2013-02-02 04:32:00,
2013-02-01 21:41:00,15.0,9.0,-100.00,ENE,77,3.0,6.0,78,0.00,,,0.00,0.000000,,2013-02-02 04:41:00,
2013-02-01 21:51:00,15.0,9.0,-100.00,ENE,77,3.0,6.0,78,0.00,,,0.00,0.000000,,2013-02-02 04:51:00,
2013-02-01 21:52:00,13.0,9.0,-100.00,East,85,2.0,8.0,82,0.00,,,0.00,0.000000,,2013-02-02 04:52:00,
2013-02-01 22:22:00,13.0,9.0,-100.00,East,85,2.0,8.0,82,0.00,,,0.00,0.000000,,2013-02-02 05:22:00,
2013-02-01 22:33:00,13.0,9.0,-100.00,East,85,2.0,8.0,82,0.00,,,0.00,0.000000,,2013-02-02 05:33:00,
2013-02-01 22:41:00,13.0,9.0,-100.00,East,85,2.0,8.0,82,0.00,,,0.00,0.000000,,2013-02-02 05:41:00,
2013-02-01 23:12:00,13.0,8.0,-100.00,ENE,75,1.0,8.0,79,0.00,,,0.00,0.000000,,2013-02-02 06:12:00,
2013-02-01 23:21:00,13.0,8.0,-100.00,ENE,75,1.0,8.0,79,0.00,,,0.00,0.000000,,2013-02-02 06:21:00,
2013-02-01 23:31:00,13.0,8.0,-100.00,ENE,75,1.0,8.0,79,0.00,,,0.00,0.000000,,2013-02-02 06:31:00,